Time;durP1;ratioP1;P1;durP2;ratioP2;P2;SDS_P1;SDS_P2;PMS_P1;PMS_P2;Temp;Humidity;BMP_temperature;BMP_pressure;BME280_temperature;BME280_humidity;BME280_pressure;Samples;Min_cycle;Max_cycle;Signal;HPM_P1;HPM_P2
2022/09/08 00:00:09;;;;;;;9.60;3.15;;;;;;;;;;4946226;28;20051;-63
2022/09/08 00:02:55;;;;;;;9.43;3.70;;;;;;;;;;4947828;28;20055;-62
2022/09/08 00:05:23;;;;;;;10.05;3.25;;;;;;;;;;4942016;28;20051;-61
2022/09/08 00:07:52;;;;;;;7.32;3.03;;;;;;;;;;4951051;29;20051;-61
2022/09/08 00:10:19;;;;;;;10.48;3.67;;;;;;;;;;4953745;28;20043;-63
2022/09/08 00:12:46;;;;;;;10.77;3.53;;;;;;;;;;4945104;28;20840;-62
2022/09/08 00:15:12;;;;;;;9.88;3.55;;;;;;;;;;4950386;28;20153;-63
2022/09/08 00:17:38;;;;;;;8.88;3.15;;;;;;;;;;4951228;28;20047;-64
2022/09/08 00:20:06;;;;;;;7.68;3.25;;;;;;;;;;4951255;29;20051;-63
2022/09/08 00:22:32;;;;;;;9.38;3.47;;;;;;;;;;4950851;28;20055;-62
2022/09/08 00:24:58;;;;;;;13.52;3.38;;;;;;;;;;4953055;29;20162;-63
2022/09/08 00:27:24;;;;;;;8.40;3.55;;;;;;;;;;4952886;28;20051;-61
2022/09/08 00:29:49;;;;;;;11.32;3.53;;;;;;;;;;4951241;28;20049;-63
2022/09/08 00:32:15;;;;;;;11.15;3.70;;;;;;;;;;4951165;28;20055;-61
2022/09/08 00:34:41;;;;;;;7.85;3.05;;;;;;;;;;4947895;28;20055;-62
2022/09/08 00:37:07;;;;;;;9.20;2.65;;;;;;;;;;4951037;28;20131;-63
2022/09/08 00:39:33;;;;;;;12.23;3.10;;;;;;;;;;4949858;28;20055;-62
2022/09/08 00:41:59;;;;;;;7.50;2.63;;;;;;;;;;4949178;28;20047;-62
2022/09/08 00:44:39;;;;;;;7.32;2.55;;;;;;;;;;4953414;28;20045;-61
2022/09/08 00:47:30;;;;;;;9.05;2.85;;;;;;;;;;4946122;28;20051;-61
2022/09/08 00:49:59;;;;;;;5.32;2.20;;;;;;;;;;4945984;28;20497;-63
2022/09/08 00:52:26;;;;;;;12.88;2.30;;;;;;;;;;4943907;29;20186;-63
2022/09/08 00:54:52;;;;;;;6.50;2.35;;;;;;;;;;4949794;28;20036;-61
2022/09/08 00:57:18;;;;;;;4.47;2.58;;;;;;;;;;4951053;28;20090;-62
2022/09/08 00:59:46;;;;;;;9.02;2.20;;;;;;;;;;4951533;28;20051;-62
2022/09/08 01:02:24;;;;;;;6.20;2.63;;;;;;;;;;4958313;28;20047;-61
2022/09/08 01:04:55;;;;;;;7.97;2.80;;;;;;;;;;4952580;28;20061;-63
2022/09/08 01:13:35;;;;;;;8.95;2.65;;;;;;;;;;4949787;28;20190;-60
2022/09/08 01:16:01;;;;;;;7.13;2.42;;;;;;;;;;4951744;28;20069;-61
2022/09/08 01:18:27;;;;;;;7.30;2.45;;;;;;;;;;4951864;28;20050;-62
2022/09/08 01:20:55;;;;;;;10.60;2.60;;;;;;;;;;4951413;28;20054;-62
2022/09/08 01:23:40;;;;;;;7.30;2.20;;;;;;;;;;4950349;28;20114;-61
2022/09/08 01:26:35;;;;;;;9.10;2.50;;;;;;;;;;4959951;28;20047;-60
2022/09/08 01:29:05;;;;;;;8.15;2.20;;;;;;;;;;4943411;29;20107;-63
2022/09/08 01:31:33;;;;;;;8.48;2.55;;;;;;;;;;4950429;28;20043;-62
2022/09/08 01:34:00;;;;;;;7.40;2.30;;;;;;;;;;4951148;28;20113;-61
2022/09/08 01:36:26;;;;;;;6.78;2.10;;;;;;;;;;4951681;28;20069;-60
2022/09/08 01:38:52;;;;;;;8.32;2.35;;;;;;;;;;4947771;28;20046;-61
2022/09/08 01:41:18;;;;;;;7.30;1.80;;;;;;;;;;4948094;28;20039;-62
2022/09/08 01:43:44;;;;;;;7.68;2.20;;;;;;;;;;4946771;29;20197;-62
2022/09/08 01:46:10;;;;;;;5.85;1.42;;;;;;;;;;4946025;28;20047;-60
2022/09/08 01:48:36;;;;;;;6.60;1.80;;;;;;;;;;4948833;28;20387;-62
2022/09/08 01:51:05;;;;;;;7.97;1.73;;;;;;;;;;4951102;28;20058;-61
2022/09/08 01:53:31;;;;;;;3.60;1.13;;;;;;;;;;4948075;28;20501;-62
2022/09/08 01:55:56;;;;;;;9.48;1.60;;;;;;;;;;4950211;28;20070;-62
2022/09/08 01:58:23;;;;;;;4.28;1.50;;;;;;;;;;4950995;29;20155;-63
2022/09/08 02:00:49;;;;;;;3.85;1.38;;;;;;;;;;4947170;28;20344;-62
2022/09/08 02:03:15;;;;;;;4.90;1.42;;;;;;;;;;4952561;28;20043;-62
2022/09/08 02:05:42;;;;;;;3.40;1.20;;;;;;;;;;4949300;28;20592;-61
2022/09/08 02:08:09;;;;;;;3.72;1.30;;;;;;;;;;4944883;28;20051;-61
2022/09/08 02:10:36;;;;;;;2.97;1.48;;;;;;;;;;4951294;28;20138;-61
2022/09/08 02:13:04;;;;;;;3.75;1.33;;;;;;;;;;4951427;28;20516;-61
2022/09/08 02:15:31;;;;;;;2.28;1.20;;;;;;;;;;4950571;28;20113;-61
2022/09/08 02:17:57;;;;;;;3.03;1.30;;;;;;;;;;4950076;28;20047;-62
2022/09/08 02:20:24;;;;;;;6.38;1.30;;;;;;;;;;4951063;28;20054;-63
2022/09/08 02:22:52;;;;;;;5.28;1.00;;;;;;;;;;4945751;28;20065;-62
2022/09/08 02:25:17;;;;;;;4.72;1.15;;;;;;;;;;4949542;28;20405;-61
2022/09/08 02:27:43;;;;;;;3.78;1.10;;;;;;;;;;4953819;28;20047;-61
2022/09/08 02:30:11;;;;;;;2.45;0.95;;;;;;;;;;4950457;28;20196;-60
2022/09/08 02:32:37;;;;;;;3.20;1.10;;;;;;;;;;4948784;28;20099;-61
2022/09/08 02:35:03;;;;;;;2.10;1.02;;;;;;;;;;4948562;28;20051;-61
2022/09/08 02:37:29;;;;;;;5.47;1.13;;;;;;;;;;4949939;29;20047;-60
2022/09/08 02:39:55;;;;;;;5.63;0.98;;;;;;;;;;4948964;28;20573;-64
2022/09/08 02:42:23;;;;;;;3.53;1.00;;;;;;;;;;4953007;29;20055;-63
2022/09/08 02:44:48;;;;;;;6.82;1.00;;;;;;;;;;4949111;28;20457;-63
2022/09/08 02:47:14;;;;;;;4.80;1.20;;;;;;;;;;4946891;28;20627;-66
2022/09/08 02:49:40;;;;;;;5.80;1.35;;;;;;;;;;4947257;28;20047;-61
2022/09/08 02:52:06;;;;;;;9.00;1.50;;;;;;;;;;4948819;28;20054;-62
2022/09/08 02:54:32;;;;;;;3.47;1.20;;;;;;;;;;4944358;28;20041;-65
2022/09/08 02:56:58;;;;;;;7.25;1.00;;;;;;;;;;4948459;28;20196;-60
2022/09/08 02:59:24;;;;;;;2.75;1.10;;;;;;;;;;4949429;28;20243;-60
2022/09/08 03:01:49;;;;;;;9.95;1.38;;;;;;;;;;4949790;28;20504;-62
2022/09/08 03:04:16;;;;;;;9.52;1.35;;;;;;;;;;4948695;28;20047;-61
2022/09/08 03:06:43;;;;;;;3.90;0.90;;;;;;;;;;4947510;28;20051;-61
2022/09/08 03:09:08;;;;;;;4.72;1.05;;;;;;;;;;4947988;28;20051;-61
2022/09/08 03:11:35;;;;;;;2.40;0.95;;;;;;;;;;4944863;28;20054;-60
2022/09/08 03:14:02;;;;;;;2.97;1.00;;;;;;;;;;4946840;28;20055;-60
2022/09/08 03:16:28;;;;;;;3.08;1.02;;;;;;;;;;4947320;28;20134;-60
2022/09/08 03:18:54;;;;;;;1.58;0.98;;;;;;;;;;4946811;28;20501;-62
2022/09/08 03:21:20;;;;;;;5.47;1.33;;;;;;;;;;4949578;29;20153;-60
2022/09/08 03:23:47;;;;;;;5.20;1.10;;;;;;;;;;4944409;28;20054;-59
2022/09/08 03:26:20;;;;;;;3.25;1.00;;;;;;;;;;4939971;28;20460;-62
2022/09/08 03:28:46;;;;;;;5.47;1.13;;;;;;;;;;4946095;28;20137;-59
2022/09/08 03:31:15;;;;;;;2.42;1.00;;;;;;;;;;4950022;28;20382;-61
2022/09/08 03:33:42;;;;;;;2.83;0.88;;;;;;;;;;4950782;28;20051;-60
2022/09/08 03:36:10;;;;;;;4.85;1.13;;;;;;;;;;4942545;28;20061;-60
2022/09/08 03:38:36;;;;;;;7.05;0.90;;;;;;;;;;4951025;28;20055;-62
2022/09/08 03:41:12;;;;;;;7.03;1.30;;;;;;;;;;4948804;28;20055;-61
2022/09/08 03:43:42;;;;;;;3.50;1.00;;;;;;;;;;4953009;28;20333;-60
2022/09/08 03:46:08;;;;;;;5.97;1.00;;;;;;;;;;4949839;28;20061;-61
2022/09/08 03:48:34;;;;;;;5.05;1.10;;;;;;;;;;4935481;29;20130;-59
2022/09/08 03:51:12;;;;;;;5.32;1.38;;;;;;;;;;4952557;28;20106;-61
2022/09/08 03:53:38;;;;;;;3.10;1.00;;;;;;;;;;4953581;28;20050;-60
2022/09/08 03:56:08;;;;;;;2.55;0.95;;;;;;;;;;4949796;28;20130;-62
2022/09/08 03:58:36;;;;;;;5.60;1.00;;;;;;;;;;4953340;28;20071;-62
2022/09/08 04:01:10;;;;;;;2.40;0.90;;;;;;;;;;4949347;28;20051;-61
2022/09/08 04:03:36;;;;;;;;;;;;;;;;;;4947416;28;20176;-61
2022/09/08 04:06:03;;;;;;;4.45;1.02;;;;;;;;;;4950538;28;19987;-61
2022/09/08 04:08:30;;;;;;;5.60;1.00;;;;;;;;;;4945413;28;20169;-63
2022/09/08 04:10:56;;;;;;;4.13;1.13;;;;;;;;;;4950031;28;20048;-60
2022/09/08 04:13:23;;;;;;;3.00;1.00;;;;;;;;;;4947090;28;20056;-61
2022/09/08 04:15:49;;;;;;;2.78;0.90;;;;;;;;;;4947622;28;20381;-62
2022/09/08 04:18:15;;;;;;;3.83;1.17;;;;;;;;;;4948466;28;20043;-65
2022/09/08 04:20:41;;;;;;;2.08;0.90;;;;;;;;;;4950105;28;20135;-63
2022/09/08 04:23:08;;;;;;;5.25;1.23;;;;;;;;;;4946857;28;20123;-62
2022/09/08 04:25:34;;;;;;;5.35;1.50;;;;;;;;;;4953889;28;20054;-63
2022/09/08 04:28:00;;;;;;;5.53;1.58;;;;;;;;;;4949912;28;20052;-63
2022/09/08 04:30:40;;;;;;;6.32;1.13;;;;;;;;;;4938595;28;20093;-61
2022/09/08 04:33:06;;;;;;;5.43;1.10;;;;;;;;;;4952818;29;20079;-61
2022/09/08 04:35:32;;;;;;;7.22;1.40;;;;;;;;;;4947824;28;20487;-60
2022/09/08 04:37:58;;;;;;;8.65;1.55;;;;;;;;;;4927719;28;20541;-61
2022/09/08 04:40:24;;;;;;;13.45;1.50;;;;;;;;;;4953263;28;20497;-65
2022/09/08 04:42:49;;;;;;;4.82;1.13;;;;;;;;;;4958567;28;20522;-62
2022/09/08 04:45:19;;;;;;;6.82;1.40;;;;;;;;;;4936958;28;20120;-61
2022/09/08 04:47:45;;;;;;;7.57;1.05;;;;;;;;;;4948685;28;20467;-62
2022/09/08 04:50:11;;;;;;;3.80;1.48;;;;;;;;;;4952566;28;20039;-63
2022/09/08 04:52:37;;;;;;;5.28;1.08;;;;;;;;;;4946939;28;20043;-65
2022/09/08 04:55:03;;;;;;;4.80;1.42;;;;;;;;;;4952409;29;20091;-65
2022/09/08 04:57:29;;;;;;;4.15;1.13;;;;;;;;;;4946641;29;20048;-63
2022/09/08 04:59:54;;;;;;;4.38;1.02;;;;;;;;;;4946024;28;20122;-60
2022/09/08 05:02:20;;;;;;;9.43;1.30;;;;;;;;;;4947871;28;20401;-60
2022/09/08 05:04:46;;;;;;;8.65;1.50;;;;;;;;;;4949805;28;20057;-61
2022/09/08 05:07:12;;;;;;;3.63;0.93;;;;;;;;;;4946738;28;20477;-60
2022/09/08 05:09:38;;;;;;;9.52;1.48;;;;;;;;;;4951928;28;20047;-61
2022/09/08 05:12:04;;;;;;;10.82;1.38;;;;;;;;;;4953853;28;20044;-63
2022/09/08 05:14:29;;;;;;;9.93;1.20;;;;;;;;;;4950894;28;20047;-65
2022/09/08 05:16:55;;;;;;;6.85;1.50;;;;;;;;;;4944923;28;20521;-62
2022/09/08 05:19:21;;;;;;;7.18;1.40;;;;;;;;;;4944942;28;20051;-64
2022/09/08 05:21:47;;;;;;;7.50;2.08;;;;;;;;;;4944398;28;20769;-62
2022/09/08 05:24:13;;;;;;;9.23;1.55;;;;;;;;;;4949322;28;20054;-62
2022/09/08 05:26:39;;;;;;;7.15;1.70;;;;;;;;;;4947437;28;20143;-66
2022/09/08 05:29:05;;;;;;;8.55;1.63;;;;;;;;;;4949112;28;20074;-63
2022/09/08 05:31:31;;;;;;;5.25;1.80;;;;;;;;;;4946279;28;20153;-63
2022/09/08 05:33:58;;;;;;;10.95;3.45;;;;;;;;;;4948292;28;20461;-65
2022/09/08 05:36:31;;;;;;;12.38;2.85;;;;;;;;;;4944040;28;20083;-61
2022/09/08 05:38:57;;;;;;;10.88;2.70;;;;;;;;;;4943345;29;20059;-64
2022/09/08 05:41:23;;;;;;;8.25;3.00;;;;;;;;;;4950981;29;20039;-63
2022/09/08 05:43:54;;;;;;;13.60;3.08;;;;;;;;;;4947993;28;20051;-64
2022/09/08 05:46:21;;;;;;;19.23;6.65;;;;;;;;;;4950352;28;20051;-65
2022/09/08 05:48:47;;;;;;;20.60;3.15;;;;;;;;;;4949491;29;20087;-63
2022/09/08 05:51:17;;;;;;;14.85;2.97;;;;;;;;;;4952488;28;20493;-64
2022/09/08 05:53:44;;;;;;;11.90;2.40;;;;;;;;;;4948706;29;20047;-63
2022/09/08 05:56:10;;;;;;;9.38;2.55;;;;;;;;;;4944684;28;20039;-62
2022/09/08 05:58:36;;;;;;;7.70;2.20;;;;;;;;;;4947451;29;20051;-64
2022/09/08 06:01:11;;;;;;;11.20;2.70;;;;;;;;;;4951818;28;20090;-65
2022/09/08 06:03:37;;;;;;;11.02;3.05;;;;;;;;;;4950864;28;20051;-61
2022/09/08 06:06:09;;;;;;;10.98;2.67;;;;;;;;;;4945376;28;20536;-62
2022/09/08 06:08:37;;;;;;;11.70;2.97;;;;;;;;;;4944276;28;20146;-62
2022/09/08 06:11:02;;;;;;;12.90;3.08;;;;;;;;;;4950160;29;20047;-63
2022/09/08 06:13:32;;;;;;;11.25;4.57;;;;;;;;;;4941199;28;20493;-62
2022/09/08 06:16:10;;;;;;;11.32;3.30;;;;;;;;;;4944119;28;20576;-62
2022/09/08 06:18:38;;;;;;;13.48;3.15;;;;;;;;;;4946503;28;20047;-62
2022/09/08 06:21:09;;;;;;;11.70;3.05;;;;;;;;;;4949989;28;20039;-64
2022/09/08 06:23:35;;;;;;;11.23;3.00;;;;;;;;;;4941245;28;20106;-64
2022/09/08 06:26:42;;;;;;;11.07;2.60;;;;;;;;;;4946008;28;20047;-65
2022/09/08 06:29:14;;;;;;;9.88;2.60;;;;;;;;;;4942832;28;20051;-73
2022/09/08 06:31:46;;;;;;;19.35;2.58;;;;;;;;;;4947413;28;20478;-69
2022/09/08 06:34:19;;;;;;;13.48;2.40;;;;;;;;;;4939948;28;20453;-71
2022/09/08 06:36:55;;;;;;;10.07;2.10;;;;;;;;;;4944977;29;20040;-66
2022/09/08 06:39:26;;;;;;;7.65;2.22;;;;;;;;;;4946799;28;20300;-65
2022/09/08 06:42:11;;;;;;;13.07;2.50;;;;;;;;;;4932310;29;20055;-65
2022/09/08 06:44:41;;;;;;;9.48;2.20;;;;;;;;;;4942865;28;20070;-66
2022/09/08 06:47:17;;;;;;;9.93;2.72;;;;;;;;;;4947831;28;20054;-65
2022/09/08 06:49:43;;;;;;;10.45;2.40;;;;;;;;;;4943636;28;20089;-65
2022/09/08 06:52:33;;;;;;;8.48;2.50;;;;;;;;;;4943474;29;20445;-64
2022/09/08 06:55:35;;;;;;;13.65;2.67;;;;;;;;;;4948641;29;20564;-64
2022/09/08 06:58:16;;;;;;;11.85;2.10;;;;;;;;;;4944393;29;20515;-66
2022/09/08 07:00:51;;;;;;;13.40;1.95;;;;;;;;;;4941216;28;20138;-64
2022/09/08 07:03:38;;;;;;;15.27;2.83;;;;;;;;;;4945998;28;20059;-65
2022/09/08 07:06:07;;;;;;;12.07;2.22;;;;;;;;;;4946275;28;20079;-68
2022/09/08 07:08:48;;;;;;;14.63;2.42;;;;;;;;;;4942618;28;20501;-65
2022/09/08 07:11:51;;;;;;;14.98;2.50;;;;;;;;;;4944361;29;20046;-66
2022/09/08 07:14:30;;;;;;;10.77;2.70;;;;;;;;;;4920885;29;20122;-64
2022/09/08 07:17:05;;;;;;;8.43;2.28;;;;;;;;;;4946855;28;20097;-66
2022/09/08 07:19:46;;;;;;;16.42;3.38;;;;;;;;;;4927557;28;20137;-63
2022/09/08 07:22:27;;;;;;;14.02;3.20;;;;;;;;;;4950868;29;20035;-64
2022/09/08 07:25:02;;;;;;;15.07;3.60;;;;;;;;;;4946342;28;20059;-63
2022/09/08 07:27:28;;;;;;;23.27;4.75;;;;;;;;;;4947271;28;20049;-65
2022/09/08 07:30:00;;;;;;;25.73;5.70;;;;;;;;;;4945348;28;20058;-67
2022/09/08 07:32:32;;;;;;;47.42;7.63;;;;;;;;;;4945491;28;20050;-65
2022/09/08 07:35:03;;;;;;;37.58;6.53;;;;;;;;;;4947516;29;20055;-65
2022/09/08 07:37:41;;;;;;;33.65;6.45;;;;;;;;;;4935909;29;20755;-66
2022/09/08 07:40:39;;;;;;;17.13;4.65;;;;;;;;;;4943385;28;20051;-66
2022/09/08 07:43:10;;;;;;;16.83;3.85;;;;;;;;;;4948217;28;20066;-66
2022/09/08 07:45:56;;;;;;;22.45;3.20;;;;;;;;;;4946638;29;20066;-65
2022/09/08 07:48:40;;;;;;;12.98;3.10;;;;;;;;;;4942252;28;20051;-64
2022/09/08 07:51:13;;;;;;;24.40;3.85;;;;;;;;;;4942390;28;20404;-65
2022/09/08 07:53:48;;;;;;;9.18;2.60;;;;;;;;;;4945079;29;20063;-64
2022/09/08 07:56:23;;;;;;;10.65;3.33;;;;;;;;;;4933796;29;20159;-65
2022/09/08 07:59:25;;;;;;;16.05;2.50;;;;;;;;;;4944361;29;20051;-65
2022/09/08 08:02:09;;;;;;;12.10;2.33;;;;;;;;;;4949347;28;20057;-66
2022/09/08 08:04:45;;;;;;;12.38;2.08;;;;;;;;;;4933385;28;20050;-64
2022/09/08 08:07:16;;;;;;;9.98;1.70;;;;;;;;;;4941174;28;20039;-66
2022/09/08 08:10:15;;;;;;;7.32;1.77;;;;;;;;;;4933526;29;20504;-65
2022/09/08 08:13:08;;;;;;;6.57;1.63;;;;;;;;;;4938752;29;20143;-67
2022/09/08 08:15:45;;;;;;;7.63;1.80;;;;;;;;;;4945883;29;20122;-64
2022/09/08 08:18:44;;;;;;;8.63;1.90;;;;;;;;;;4949027;28;20054;-68
2022/09/08 08:21:23;;;;;;;7.90;1.88;;;;;;;;;;4943526;28;20075;-67
2022/09/08 08:24:24;;;;;;;10.38;1.98;;;;;;;;;;4955351;28;20070;-65
2022/09/08 08:27:12;;;;;;;12.60;1.98;;;;;;;;;;4955718;28;20051;-66
2022/09/08 08:30:09;;;;;;;7.35;1.45;;;;;;;;;;4923243;29;20058;-67
2022/09/08 08:32:38;;;;;;;6.50;1.50;;;;;;;;;;4948467;28;20052;-66
2022/09/08 08:35:14;;;;;;;6.03;1.45;;;;;;;;;;4950909;28;20051;-66
2022/09/08 08:37:41;;;;;;;6.13;1.77;;;;;;;;;;4953710;29;20106;-66
2022/09/08 08:40:53;;;;;;;6.15;1.60;;;;;;;;;;4947939;28;20455;-67
2022/09/08 08:43:25;;;;;;;7.47;1.50;;;;;;;;;;4941102;29;20058;-66
2022/09/08 08:46:19;;;;;;;7.32;1.58;;;;;;;;;;4949736;28;20054;-65
2022/09/08 08:49:17;;;;;;;5.38;1.40;;;;;;;;;;4942185;28;20121;-66
2022/09/08 08:51:46;;;;;;;6.38;1.55;;;;;;;;;;4949891;29;20382;-67
2022/09/08 08:54:57;;;;;;;9.32;2.50;;;;;;;;;;4936249;28;20044;-66
2022/09/08 08:57:29;;;;;;;9.30;2.03;;;;;;;;;;4938755;28;20048;-65
2022/09/08 09:00:03;;;;;;;9.82;2.10;;;;;;;;;;4949880;29;20332;-67
2022/09/08 09:03:00;;;;;;;5.60;2.05;;;;;;;;;;4950637;28;20047;-67
2022/09/08 09:05:57;;;;;;;5.68;1.52;;;;;;;;;;4954281;28;20450;-65
2022/09/08 09:08:36;;;;;;;8.23;2.00;;;;;;;;;;4950324;29;20402;-66
2022/09/08 09:11:05;;;;;;;4.88;1.50;;;;;;;;;;4951806;29;20047;-67
2022/09/08 09:13:36;;;;;;;7.25;2.05;;;;;;;;;;4951585;29;20051;-65
2022/09/08 09:16:18;;;;;;;11.45;2.60;;;;;;;;;;4948487;28;20039;-65
2022/09/08 09:19:18;;;;;;;5.55;1.77;;;;;;;;;;4944557;28;20047;-67
2022/09/08 09:22:17;;;;;;;22.70;3.85;;;;;;;;;;4949012;28;20054;-68
2022/09/08 09:25:11;;;;;;;10.35;3.58;;;;;;;;;;4941526;29;20048;-68
2022/09/08 09:27:45;;;;;;;9.33;3.20;;;;;;;;;;4940962;28;20421;-67
2022/09/08 09:30:12;;;;;;;7.65;2.85;;;;;;;;;;4952104;29;20047;-68
2022/09/08 09:32:53;;;;;;;13.60;3.63;;;;;;;;;;4950510;28;20445;-68
2022/09/08 09:35:39;;;;;;;12.15;2.92;;;;;;;;;;4951540;29;20130;-73
2022/09/08 09:38:17;;;;;;;9.07;2.38;;;;;;;;;;4951560;29;20051;-68
2022/09/08 09:40:50;;;;;;;10.82;2.33;;;;;;;;;;4951243;29;20408;-66
2022/09/08 09:43:19;;;;;;;11.23;3.50;;;;;;;;;;4950271;29;20047;-68
2022/09/08 09:46:09;;;;;;;8.77;1.98;;;;;;;;;;4950305;29;20297;-70
2022/09/08 09:49:12;;;;;;;7.30;2.15;;;;;;;;;;4943558;28;20063;-69
2022/09/08 09:51:52;;;;;;;11.07;2.42;;;;;;;;;;4939579;28;20035;-68
2022/09/08 09:54:17;;;;;;;6.70;2.13;;;;;;;;;;4951010;29;20525;-70
2022/09/08 09:57:12;;;;;;;7.05;1.85;;;;;;;;;;4950807;29;20142;-72
2022/09/08 10:00:14;;;;;;;6.15;1.73;;;;;;;;;;4942224;28;20061;-69
2022/09/08 10:02:57;;;;;;;9.60;1.95;;;;;;;;;;4950941;28;20050;-68
2022/09/08 10:05:41;;;;;;;8.50;2.10;;;;;;;;;;4954658;28;20314;-69
2022/09/08 10:08:40;;;;;;;7.50;1.83;;;;;;;;;;4946993;29;20118;-71
2022/09/08 10:11:32;;;;;;;6.80;1.70;;;;;;;;;;4950296;29;20044;-68
2022/09/08 10:14:32;;;;;;;9.05;1.65;;;;;;;;;;4940937;28;20069;-70
2022/09/08 10:17:24;;;;;;;7.97;1.67;;;;;;;;;;4949624;28;20047;-70
2022/09/08 10:20:08;;;;;;;6.90;1.90;;;;;;;;;;4948682;29;20105;-70
2022/09/08 10:22:59;;;;;;;11.77;2.10;;;;;;;;;;4950201;28;20066;-71
2022/09/08 10:25:50;;;;;;;7.53;1.83;;;;;;;;;;4949972;29;20055;-70
2022/09/08 10:28:42;;;;;;;5.97;2.10;;;;;;;;;;4949506;29;20564;-68
2022/09/08 10:31:48;;;;;;;10.40;2.00;;;;;;;;;;4951221;29;20134;-70
2022/09/08 10:34:37;;;;;;;5.85;2.42;;;;;;;;;;4949839;29;20406;-69
2022/09/08 10:37:51;;;;;;;11.80;2.72;;;;;;;;;;4952039;29;20452;-69
2022/09/08 10:40:20;;;;;;;10.73;2.55;;;;;;;;;;4949239;28;20082;-70
2022/09/08 10:42:49;;;;;;;5.43;1.92;;;;;;;;;;4949227;28;20053;-69
2022/09/08 10:45:29;;;;;;;9.05;2.22;;;;;;;;;;4933331;29;20383;-69
2022/09/08 10:48:34;;;;;;;5.15;1.98;;;;;;;;;;4950248;29;20063;-70
2022/09/08 10:51:39;;;;;;;4.93;1.80;;;;;;;;;;4945218;29;20438;-69
2022/09/08 10:54:26;;;;;;;10.10;2.15;;;;;;;;;;4944202;28;20122;-70
2022/09/08 10:56:58;;;;;;;7.30;1.95;;;;;;;;;;4941686;28;20149;-69
2022/09/08 10:59:42;;;;;;;9.13;2.10;;;;;;;;;;4949266;29;20497;-70
2022/09/08 11:02:15;;;;;;;5.13;1.80;;;;;;;;;;4946017;29;20052;-70
2022/09/08 11:04:59;;;;;;;5.82;2.08;;;;;;;;;;4946413;29;20054;-69
2022/09/08 11:07:52;;;;;;;15.50;2.92;;;;;;;;;;4951340;29;20042;-69
2022/09/08 11:10:42;;;;;;;6.73;2.10;;;;;;;;;;4952398;29;20575;-69
2022/09/08 11:13:26;;;;;;;6.05;2.30;;;;;;;;;;4952337;28;20083;-69
2022/09/08 11:16:15;;;;;;;11.60;2.30;;;;;;;;;;4938910;28;20142;-71
2022/09/08 11:19:24;;;;;;;11.23;2.50;;;;;;;;;;4949468;29;20453;-68
2022/09/08 11:22:21;;;;;;;11.25;2.40;;;;;;;;;;4949804;29;20130;-69
2022/09/08 11:25:14;;;;;;;6.75;2.10;;;;;;;;;;4948357;29;20051;-68
2022/09/08 11:28:17;;;;;;;12.03;2.73;;;;;;;;;;4949041;29;20134;-69
2022/09/08 11:31:14;;;;;;;5.97;2.00;;;;;;;;;;4947016;29;20293;-69
2022/09/08 11:34:05;;;;;;;9.98;2.55;;;;;;;;;;4948582;29;20087;-69
2022/09/08 11:37:05;;;;;;;10.07;2.80;;;;;;;;;;4941458;29;20134;-70
2022/09/08 11:40:06;;;;;;;9.45;2.50;;;;;;;;;;4934988;29;20074;-70
2022/09/08 11:42:58;;;;;;;19.23;3.50;;;;;;;;;;4949432;28;20047;-72
2022/09/08 11:45:51;;;;;;;7.25;2.40;;;;;;;;;;4947929;29;20581;-71
2022/09/08 11:48:35;;;;;;;14.43;2.38;;;;;;;;;;4938175;28;20497;-71
2022/09/08 11:51:19;;;;;;;15.38;2.70;;;;;;;;;;4947650;29;20057;-68
2022/09/08 11:54:37;;;;;;;13.70;2.85;;;;;;;;;;4948398;28;20533;-69
2022/09/08 11:57:10;;;;;;;10.52;2.30;;;;;;;;;;4930624;29;20051;-69
2022/09/08 12:00:12;;;;;;;10.43;2.50;;;;;;;;;;4930423;29;20051;-69
2022/09/08 12:02:56;;;;;;;7.50;2.20;;;;;;;;;;4930806;29;20116;-72
2022/09/08 12:05:25;;;;;;;;;;;;;;;;;;4931276;29;20043;-70
2022/09/08 12:08:09;;;;;;;8.68;2.35;;;;;;;;;;4929616;29;19954;-70
2022/09/08 12:11:00;;;;;;;9.35;2.10;;;;;;;;;;4931229;29;20048;-68
2022/09/08 12:13:48;;;;;;;8.15;2.80;;;;;;;;;;4930194;29;20061;-70
2022/09/08 12:16:31;;;;;;;9.30;2.10;;;;;;;;;;4930518;29;20063;-70
2022/09/08 12:19:28;;;;;;;9.07;3.17;;;;;;;;;;4929772;29;20054;-70
2022/09/08 12:22:21;;;;;;;9.52;2.30;;;;;;;;;;4930213;29;20053;-71
2022/09/08 12:25:17;;;;;;;7.63;2.28;;;;;;;;;;4929002;29;20424;-70
2022/09/08 12:28:02;;;;;;;8.15;2.30;;;;;;;;;;4930304;29;20063;-71
2022/09/08 12:30:54;;;;;;;9.25;2.25;;;;;;;;;;4932559;29;20115;-71
2022/09/08 12:33:57;;;;;;;6.10;1.95;;;;;;;;;;4941359;29;20050;-71
2022/09/08 12:36:41;;;;;;;4.88;2.03;;;;;;;;;;4951857;29;20133;-71
2022/09/08 12:39:25;;;;;;;;;;;;;;;;;;4953905;28;20047;-72
2022/09/08 12:42:00;;;;;;;8.25;1.98;;;;;;;;;;4952360;29;19962;-71
2022/09/08 12:44:43;;;;;;;6.70;2.10;;;;;;;;;;4952658;29;20066;-70
2022/09/08 12:47:19;;;;;;;10.93;2.13;;;;;;;;;;4952573;29;20417;-69
2022/09/08 12:49:51;;;;;;;8.27;1.75;;;;;;;;;;4950890;29;20078;-72
2022/09/08 12:52:40;;;;;;;4.25;1.60;;;;;;;;;;4951946;29;20102;-71
2022/09/08 12:55:21;;;;;;;6.90;1.80;;;;;;;;;;4952488;28;20123;-70
2022/09/08 12:57:54;;;;;;;6.63;1.73;;;;;;;;;;4949011;29;20126;-71
2022/09/08 13:00:39;;;;;;;9.25;1.75;;;;;;;;;;4951658;29;20051;-71
2022/09/08 13:03:27;;;;;;;6.85;2.08;;;;;;;;;;4946398;29;20661;-71
2022/09/08 13:06:21;;;;;;;11.68;1.92;;;;;;;;;;4946282;28;20058;-72
2022/09/08 13:09:07;;;;;;;7.63;1.55;;;;;;;;;;4951546;29;20050;-73
2022/09/08 13:11:58;;;;;;;5.55;1.75;;;;;;;;;;4948155;29;20056;-71
2022/09/08 13:14:46;;;;;;;6.03;1.75;;;;;;;;;;4954940;28;20169;-70
2022/09/08 13:17:42;;;;;;;8.82;1.70;;;;;;;;;;4952778;28;20141;-71
2022/09/08 13:20:38;;;;;;;11.93;1.80;;;;;;;;;;4952255;29;20086;-70
2022/09/08 13:23:24;;;;;;;7.18;1.80;;;;;;;;;;4952092;29;20118;-70
2022/09/08 13:26:02;;;;;;;7.30;1.80;;;;;;;;;;4951182;29;20514;-70
2022/09/08 13:28:34;;;;;;;8.23;1.70;;;;;;;;;;4949611;29;20158;-69
2022/09/08 13:31:25;;;;;;;6.80;1.52;;;;;;;;;;4951398;28;20082;-72
2022/09/08 13:33:57;;;;;;;7.75;1.80;;;;;;;;;;4949225;29;20394;-70
2022/09/08 13:36:48;;;;;;;3.72;1.23;;;;;;;;;;4948920;29;20121;-70
2022/09/08 13:39:33;;;;;;;7.35;1.70;;;;;;;;;;4952114;28;20048;-71
2022/09/08 13:42:14;;;;;;;6.10;1.80;;;;;;;;;;4952076;29;20079;-69
2022/09/08 13:45:08;;;;;;;14.30;2.10;;;;;;;;;;4952538;29;20062;-69
2022/09/08 13:47:43;;;;;;;;;;;;;;;;;;4952111;28;21250;-70
2022/09/08 13:50:29;;;;;;;4.60;1.35;;;;;;;;;;4950321;29;20312;-70
2022/09/08 13:53:27;;;;;;;8.93;1.30;;;;;;;;;;4949446;29;20461;-71
2022/09/08 13:56:34;;;;;;;10.18;2.10;;;;;;;;;;4948609;29;20057;-71
2022/09/08 13:59:28;;;;;;;10.15;1.42;;;;;;;;;;4949076;29;20055;-70
2022/09/08 14:01:53;;;;;;;6.40;1.40;;;;;;;;;;4950654;29;20332;-70
2022/09/08 14:04:37;;;;;;;6.25;1.45;;;;;;;;;;4958784;28;20551;-70
2022/09/08 14:07:06;;;;;;;7.32;1.45;;;;;;;;;;4950470;29;20051;-70
2022/09/08 14:09:36;;;;;;;5.60;1.40;;;;;;;;;;4948539;29;20301;-75
2022/09/08 14:12:06;;;;;;;11.27;1.67;;;;;;;;;;4951329;29;20070;-70
2022/09/08 14:14:58;;;;;;;3.92;1.13;;;;;;;;;;4942376;29;20048;-71
2022/09/08 14:17:42;;;;;;;4.78;1.20;;;;;;;;;;4950084;28;20467;-69
2022/09/08 14:20:26;;;;;;;5.30;1.55;;;;;;;;;;4950249;28;20127;-71
2022/09/08 14:23:01;;;;;;;7.82;1.50;;;;;;;;;;4949077;29;20059;-72
2022/09/08 14:25:35;;;;;;;12.50;1.60;;;;;;;;;;4949003;29;20043;-71
2022/09/08 14:28:09;;;;;;;6.65;1.70;;;;;;;;;;4948960;29;20164;-69
2022/09/08 14:30:41;;;;;;;6.78;1.50;;;;;;;;;;4949182;29;20047;-70
2022/09/08 14:33:29;;;;;;;9.15;1.58;;;;;;;;;;4948240;29;20051;-70
2022/09/08 14:35:59;;;;;;;7.13;1.25;;;;;;;;;;4949023;29;20047;-71
2022/09/08 14:38:58;;;;;;;9.65;1.63;;;;;;;;;;4949430;28;20103;-70
2022/09/08 14:41:23;;;;;;;6.53;1.65;;;;;;;;;;4940359;29;20061;-68
2022/09/08 14:44:08;;;;;;;5.22;1.50;;;;;;;;;;4948472;29;20043;-71
2022/09/08 14:46:52;;;;;;;10.27;1.88;;;;;;;;;;4963964;28;20256;-69
2022/09/08 14:50:01;;;;;;;6.88;1.58;;;;;;;;;;4948060;29;20141;-70
2022/09/08 14:53:09;;;;;;;8.48;1.48;;;;;;;;;;4946444;29;20051;-70
2022/09/08 14:56:08;;;;;;;7.43;1.58;;;;;;;;;;4935645;29;20126;-70
2022/09/08 14:58:55;;;;;;;7.15;1.35;;;;;;;;;;4935804;29;20039;-70
2022/09/08 15:01:24;;;;;;;7.18;1.42;;;;;;;;;;4946524;29;20047;-71
2022/09/08 15:04:02;;;;;;;6.97;1.40;;;;;;;;;;4940823;29;20043;-71
2022/09/08 15:06:51;;;;;;;4.78;1.50;;;;;;;;;;4948528;29;20089;-72
2022/09/08 15:09:19;;;;;;;8.80;1.55;;;;;;;;;;4930267;29;20441;-71
2022/09/08 15:11:51;;;;;;;5.82;1.33;;;;;;;;;;4946399;29;20122;-73
2022/09/08 15:14:32;;;;;;;6.80;1.30;;;;;;;;;;4946974;29;20075;-71
2022/09/08 15:17:04;;;;;;;6.07;1.30;;;;;;;;;;4947639;29;20073;-72
2022/09/08 15:19:38;;;;;;;6.20;0.98;;;;;;;;;;4946334;29;20106;-72
2022/09/08 15:22:11;;;;;;;4.13;1.20;;;;;;;;;;4946531;29;20289;-72
2022/09/08 15:24:44;;;;;;;5.65;1.30;;;;;;;;;;4946171;29;20086;-70
2022/09/08 15:27:25;;;;;;;5.53;1.40;;;;;;;;;;4949586;29;20501;-68
2022/09/08 15:30:18;;;;;;;7.53;1.40;;;;;;;;;;4947273;28;20357;-74
2022/09/08 15:32:50;;;;;;;4.65;1.48;;;;;;;;;;4948224;28;20055;-72
2022/09/08 15:35:59;;;;;;;8.02;1.55;;;;;;;;;;4956475;29;20050;-73
2022/09/08 15:38:31;;;;;;;7.93;1.40;;;;;;;;;;4956888;29;20102;-71
2022/09/08 15:41:17;;;;;;;3.45;1.00;;;;;;;;;;4958396;28;20043;-72
2022/09/08 15:44:05;;;;;;;4.78;1.50;;;;;;;;;;4955926;29;20432;-71
2022/09/08 15:46:42;;;;;;;6.30;1.45;;;;;;;;;;4958377;28;20701;-69